Time;durP1;ratioP1;P1;durP2;ratioP2;P2;SDS_P1;SDS_P2;PMS_P1;PMS_P2;Temp;Humidity;BMP_temperature;BMP_pressure;BME280_temperature;BME280_humidity;BME280_pressure;Samples;Min_cycle;Max_cycle;Signal;HPM_P1;HPM_P2
2021/08/02 00:01:24;;;;;;;5.20;2.90;;;13.90;99.90;;;;;;4937784;29;20050;-73
2021/08/02 00:04:06;;;;;;;6.68;3.38;;;14.00;99.90;;;;;;4954279;29;20023;-71
2021/08/02 00:06:49;;;;;;;5.57;3.03;;;13.90;99.90;;;;;;4954855;29;20094;-72
2021/08/02 00:09:17;;;;;;;6.38;2.75;;;14.00;99.90;;;;;;4954871;29;20453;-73
2021/08/02 00:11:52;;;;;;;4.25;2.50;;;13.90;99.90;;;;;;4954458;29;20023;-72
2021/08/02 00:14:20;;;;;;;5.65;2.70;;;14.00;99.90;;;;;;4954552;29;20110;-76
2021/08/02 00:16:46;;;;;;;13.55;2.80;;;13.90;99.90;;;;;;4954868;29;20031;-72
2021/08/02 00:19:12;;;;;;;8.77;2.92;;;13.80;99.90;;;;;;4954314;29;20089;-73
2021/08/02 00:21:40;;;;;;;8.73;2.83;;;13.80;99.90;;;;;;4954908;29;20041;-71
2021/08/02 00:24:06;;;;;;;3.95;2.58;;;13.80;99.90;;;;;;4955281;29;20364;-72
2021/08/02 00:26:32;;;;;;;10.32;2.92;;;13.80;99.90;;;;;;4953708;29;20489;-72
2021/08/02 00:29:00;;;;;;;6.47;3.13;;;13.80;99.90;;;;;;4954700;29;20050;-71
2021/08/02 00:31:26;;;;;;;4.57;2.70;;;13.90;99.90;;;;;;4954511;29;20031;-71
2021/08/02 00:33:51;;;;;;;6.70;3.00;;;13.80;99.90;;;;;;4954232;29;20428;-71
2021/08/02 00:36:47;;;;;;;3.85;2.20;;;13.80;99.90;;;;;;4954625;29;20027;-72
2021/08/02 00:39:50;;;;;;;4.80;2.72;;;13.90;99.90;;;;;;4954064;29;20174;-78
2021/08/02 00:42:49;;;;;;;4.80;2.30;;;13.90;99.90;;;;;;4954566;29;20042;-72
2021/08/02 00:45:21;;;;;;;7.70;2.78;;;13.90;99.90;;;;;;4937353;29;20027;-72
2021/08/02 00:48:07;;;;;;;6.15;2.88;;;13.90;99.90;;;;;;4954168;29;20396;-76
2021/08/02 00:50:36;;;;;;;5.85;2.63;;;13.90;99.90;;;;;;4954402;29;20070;-80
2021/08/02 00:53:10;;;;;;;4.60;2.90;;;14.00;99.90;;;;;;4954805;29;20129;-71
2021/08/02 00:55:40;;;;;;;5.88;2.95;;;14.00;99.90;;;;;;4936736;29;20357;-73
2021/08/02 00:58:12;;;;;;;5.00;2.70;;;14.00;99.90;;;;;;4954751;29;20058;-73
2021/08/02 01:00:39;;;;;;;3.72;2.80;;;14.00;99.90;;;;;;4953658;29;20052;-73
2021/08/02 01:03:08;;;;;;;5.82;2.80;;;14.10;99.90;;;;;;4954697;29;20114;-71
2021/08/02 01:05:35;;;;;;;5.95;2.80;;;14.10;99.90;;;;;;4937193;29;20027;-72
2021/08/02 01:08:05;;;;;;;5.72;2.90;;;14.10;99.90;;;;;;4954029;29;20042;-72
2021/08/02 01:10:33;;;;;;;4.75;2.88;;;14.20;99.90;;;;;;4954588;29;20023;-72
2021/08/02 01:13:03;;;;;;;7.18;2.88;;;14.20;99.90;;;;;;4937457;28;20023;-71
2021/08/02 01:15:30;;;;;;;4.10;3.08;;;14.10;99.90;;;;;;4940022;29;20445;-72
2021/08/02 01:17:56;;;;;;;3.20;2.65;;;14.00;99.90;;;;;;4940810;29;20477;-71
2021/08/02 01:20:22;;;;;;;5.90;3.15;;;14.00;99.90;;;;;;4940414;29;20034;-71
2021/08/02 01:22:49;;;;;;;4.05;2.95;;;14.00;99.90;;;;;;4957432;29;20412;-76
2021/08/02 01:25:36;;;;;;;6.05;2.90;;;13.90;99.90;;;;;;4957508;29;20027;-73
2021/08/02 01:28:13;;;;;;;4.05;2.92;;;13.90;99.90;;;;;;4958139;29;20035;-72
2021/08/02 01:30:44;;;;;;;4.43;2.80;;;13.90;99.90;;;;;;4957165;29;20058;-71
2021/08/02 01:33:09;;;;;;;3.67;2.60;;;14.00;99.90;;;;;;4957797;29;20019;-72
2021/08/02 01:35:36;;;;;;;4.88;3.25;;;14.00;99.90;;;;;;4939810;29;20023;-71
2021/08/02 01:38:03;;;;;;;6.18;2.90;;;14.00;99.90;;;;;;4957476;29;20114;-72
2021/08/02 01:40:29;;;;;;;5.78;3.00;;;14.10;99.90;;;;;;4957196;29;20023;-72
2021/08/02 01:42:57;;;;;;;6.38;2.70;;;14.10;99.90;;;;;;4940014;29;20099;-73
2021/08/02 01:45:23;;;;;;;5.95;2.70;;;14.20;99.90;;;;;;4957056;29;20023;-72
2021/08/02 01:47:57;;;;;;;3.85;2.70;;;14.20;99.90;;;;;;4957186;29;20024;-77
2021/08/02 01:50:39;;;;;;;10.32;3.05;;;14.20;99.90;;;;;;4956325;29;20027;-73
2021/08/02 01:53:23;;;;;;;5.90;2.88;;;14.30;99.90;;;;;;4957252;29;20480;-72
2021/08/02 01:55:58;;;;;;;6.22;3.00;;;14.30;99.90;;;;;;4957266;29;20016;-72
2021/08/02 01:58:27;;;;;;;6.65;3.17;;;14.30;99.90;;;;;;4955928;29;20038;-73
2021/08/02 02:00:53;;;;;;;6.55;2.75;;;14.20;99.90;;;;;;4957009;29;20043;-80
2021/08/02 02:03:21;;;;;;;7.65;2.90;;;14.30;99.90;;;;;;4956507;29;20031;-72
2021/08/02 02:06:16;;;;;;;8.35;3.13;;;14.30;99.90;;;;;;4956200;29;20458;-73
2021/08/02 02:09:06;;;;;;;6.50;2.80;;;14.30;99.90;;;;;;4951992;29;20035;-74
2021/08/02 02:11:34;;;;;;;4.93;2.78;;;14.30;99.90;;;;;;4929375;29;20032;-75
2021/08/02 02:14:02;;;;;;;6.30;2.45;;;14.20;99.90;;;;;;4956921;29;20110;-74
2021/08/02 02:16:30;;;;;;;5.75;2.92;;;14.20;99.90;;;;;;4956703;29;20024;-72
2021/08/02 02:18:59;;;;;;;4.50;2.50;;;14.20;99.90;;;;;;4956415;29;20020;-73
2021/08/02 02:21:27;;;;;;;8.18;3.20;;;14.30;99.90;;;;;;4939212;29;20542;-72
2021/08/02 02:23:54;;;;;;;7.28;3.20;;;14.30;99.90;;;;;;4939339;29;20081;-73
2021/08/02 02:26:20;;;;;;;5.72;2.95;;;14.30;99.90;;;;;;4954711;28;20480;-74
2021/08/02 02:28:47;;;;;;;9.43;3.03;;;14.30;99.90;;;;;;4956811;29;20143;-72
2021/08/02 02:31:15;;;;;;;6.03;2.65;;;14.30;99.90;;;;;;4938998;29;20063;-71
2021/08/02 02:33:41;;;;;;;5.35;3.40;;;14.30;99.90;;;;;;4955978;29;20027;-72
2021/08/02 02:36:07;;;;;;;4.95;3.00;;;14.30;99.90;;;;;;4939626;29;20024;-72
2021/08/02 02:38:34;;;;;;;6.47;2.80;;;14.20;99.90;;;;;;4938764;29;20023;-72
2021/08/02 02:41:00;;;;;;;5.03;2.88;;;14.20;99.90;;;;;;4955801;29;20062;-76
2021/08/02 02:43:27;;;;;;;5.50;3.40;;;14.30;99.90;;;;;;4956118;29;20023;-72
2021/08/02 02:45:54;;;;;;;8.43;3.88;;;14.30;99.90;;;;;;4955944;29;20042;-74
2021/08/02 02:48:20;;;;;;;6.90;3.13;;;14.30;99.90;;;;;;4956045;29;20468;-73
2021/08/02 02:50:49;;;;;;;4.22;2.90;;;14.30;99.90;;;;;;4956046;29;20027;-72
2021/08/02 02:53:17;;;;;;;5.90;3.28;;;14.30;99.90;;;;;;4955536;29;20029;-75
2021/08/02 02:55:44;;;;;;;4.63;2.83;;;14.30;99.90;;;;;;4956235;29;20132;-73
2021/08/02 02:58:10;;;;;;;5.13;2.88;;;14.20;99.90;;;;;;4956241;29;20027;-73
2021/08/02 03:00:36;;;;;;;5.60;3.10;;;14.30;99.90;;;;;;4954922;29;20048;-78
2021/08/02 03:03:04;;;;;;;5.32;2.58;;;14.20;99.90;;;;;;4938747;29;20408;-72
2021/08/02 03:05:35;;;;;;;4.25;2.50;;;14.20;99.90;;;;;;4938231;29;20030;-72
2021/08/02 03:08:01;;;;;;;4.93;2.80;;;14.10;99.90;;;;;;4955259;29;20023;-74
2021/08/02 03:10:28;;;;;;;6.13;2.60;;;14.10;99.90;;;;;;4938238;29;20110;-73
2021/08/02 03:12:54;;;;;;;4.78;2.72;;;14.20;99.90;;;;;;4955931;29;20023;-72
2021/08/02 03:15:20;;;;;;;4.43;2.67;;;14.20;99.90;;;;;;4954746;29;20019;-72
2021/08/02 03:17:46;;;;;;;6.15;2.63;;;14.20;99.90;;;;;;4938757;29;20392;-72
2021/08/02 03:20:13;;;;;;;4.13;2.20;;;14.20;99.90;;;;;;4938138;29;20024;-72
2021/08/02 03:22:41;;;;;;;9.57;2.83;;;14.20;99.90;;;;;;4954828;29;20538;-72
2021/08/02 03:25:28;;;;;;;4.20;2.58;;;14.20;99.90;;;;;;4955625;29;20028;-76
2021/08/02 03:27:56;;;;;;;4.43;2.70;;;14.20;99.90;;;;;;4955589;29;20180;-71
2021/08/02 03:30:22;;;;;;;6.47;2.45;;;14.30;99.90;;;;;;4937329;29;20369;-72
2021/08/02 03:32:49;;;;;;;6.15;2.63;;;14.30;99.90;;;;;;4955368;29;20031;-74
2021/08/02 03:35:17;;;;;;;5.72;2.53;;;14.30;99.90;;;;;;4954587;29;20382;-71
2021/08/02 03:37:44;;;;;;;5.57;2.25;;;14.30;99.90;;;;;;4955432;29;20476;-72
2021/08/02 03:40:14;;;;;;;5.65;1.80;;;14.40;99.90;;;;;;4955251;29;20035;-72
2021/08/02 03:42:41;;;;;;;4.13;2.10;;;14.40;99.90;;;;;;4954652;29;20106;-72
2021/08/02 03:45:08;;;;;;;3.92;2.47;;;14.40;99.90;;;;;;4955218;29;20432;-72
2021/08/02 03:47:33;;;;;;;4.63;1.90;;;14.40;99.90;;;;;;4954826;29;20035;-76
2021/08/02 03:49:59;;;;;;;3.35;2.17;;;14.40;99.90;;;;;;4954498;29;20050;-71
2021/08/02 03:52:25;;;;;;;2.53;1.88;;;14.40;99.90;;;;;;4938054;29;20083;-72
2021/08/02 03:54:50;;;;;;;2.60;2.05;;;14.40;99.90;;;;;;4955642;29;20023;-73
2021/08/02 03:57:17;;;;;;;5.18;2.30;;;14.40;99.90;;;;;;4936750;29;20503;-72
2021/08/02 03:59:44;;;;;;;3.13;2.05;;;14.40;99.90;;;;;;4937577;29;20492;-78
2021/08/02 04:02:10;;;;;;;4.53;2.03;;;14.40;99.90;;;;;;4954953;29;20031;-79
2021/08/02 04:04:37;;;;;;;3.17;1.98;;;14.40;99.90;;;;;;4954372;29;20020;-72
2021/08/02 04:07:02;;;;;;;4.68;2.10;;;14.30;99.90;;;;;;4955067;29;20038;-72
2021/08/02 04:09:28;;;;;;;4.97;2.15;;;14.30;99.90;;;;;;4954583;29;20027;-72
2021/08/02 04:11:54;;;;;;;6.32;2.30;;;14.30;99.90;;;;;;4954466;29;20110;-72
2021/08/02 04:14:20;;;;;;;3.15;1.88;;;14.20;99.90;;;;;;4954447;29;20110;-73
2021/08/02 04:16:46;;;;;;;6.40;2.63;;;14.30;99.90;;;;;;4954848;29;20024;-73
2021/08/02 04:19:12;;;;;;;3.70;2.17;;;14.30;99.90;;;;;;4953976;29;20066;-72
2021/08/02 04:21:37;;;;;;;3.88;1.92;;;14.30;99.90;;;;;;4955002;29;20045;-72
2021/08/02 04:24:04;;;;;;;7.72;2.45;;;14.30;99.90;;;;;;4955100;29;20106;-72
2021/08/02 04:26:30;;;;;;;4.15;1.90;;;14.30;99.90;;;;;;4953783;29;20070;-72
2021/08/02 04:28:56;;;;;;;8.32;2.80;;;14.20;99.90;;;;;;4937577;29;20441;-74
2021/08/02 04:31:27;;;;;;;3.45;1.95;;;14.20;99.90;;;;;;4954224;29;20476;-72
2021/08/02 04:33:53;;;;;;;3.35;1.92;;;14.10;99.90;;;;;;4955248;29;20028;-72
2021/08/02 04:36:21;;;;;;;9.77;2.20;;;14.10;99.90;;;;;;4954688;29;20051;-73
2021/08/02 04:38:47;;;;;;;5.45;2.35;;;14.10;99.90;;;;;;4936881;29;20028;-72
2021/08/02 04:41:13;;;;;;;7.72;2.00;;;14.10;99.90;;;;;;4954358;29;20035;-72
2021/08/02 04:43:39;;;;;;;6.00;2.00;;;14.20;99.90;;;;;;4954845;29;20026;-74
2021/08/02 04:46:04;;;;;;;3.67;1.80;;;14.20;99.90;;;;;;4953233;29;20388;-71
2021/08/02 04:48:30;;;;;;;3.88;2.20;;;14.30;99.90;;;;;;4953622;28;20421;-72
2021/08/02 04:50:55;;;;;;;6.03;2.58;;;14.30;99.90;;;;;;4957093;29;20031;-71
2021/08/02 04:53:21;;;;;;;6.18;1.75;;;14.30;99.90;;;;;;4956251;29;20023;-79
2021/08/02 04:55:47;;;;;;;4.38;1.70;;;14.30;99.90;;;;;;4957155;29;20423;-71
2021/08/02 04:58:12;;;;;;;4.30;1.80;;;14.30;99.90;;;;;;4966674;28;20027;-73
2021/08/02 05:00:38;;;;;;;3.67;2.08;;;14.30;99.90;;;;;;4933204;29;20075;-76
2021/08/02 05:03:04;;;;;;;8.02;2.40;;;14.30;99.90;;;;;;4957495;29;20031;-72
2021/08/02 05:05:29;;;;;;;3.67;2.20;;;14.30;99.90;;;;;;4957162;29;20023;-70
2021/08/02 05:07:55;;;;;;;3.50;1.90;;;14.20;99.90;;;;;;4939650;29;20023;-70
2021/08/02 05:10:20;;;;;;;4.22;2.35;;;14.20;99.90;;;;;;4956543;29;20404;-71
2021/08/02 05:12:46;;;;;;;5.30;2.20;;;14.20;99.90;;;;;;4960615;28;20054;-71
2021/08/02 05:15:12;;;;;;;4.25;2.00;;;14.20;99.90;;;;;;4956168;29;20023;-70
2021/08/02 05:17:39;;;;;;;5.30;2.08;;;14.10;99.90;;;;;;4956244;29;20042;-70
2021/08/02 05:20:06;;;;;;;6.00;2.25;;;14.10;99.90;;;;;;4957074;29;20058;-91
2021/08/02 05:22:32;;;;;;;8.65;2.40;;;14.10;99.90;;;;;;4940003;29;20057;-71
2021/08/02 05:24:58;;;;;;;5.13;2.10;;;14.00;99.90;;;;;;4956352;29;20023;-73
2021/08/02 05:27:24;;;;;;;4.25;1.85;;;14.00;99.90;;;;;;4939348;29;20094;-74
2021/08/02 05:29:49;;;;;;;3.92;1.90;;;14.00;99.90;;;;;;4956073;29;20392;-80
2021/08/02 05:32:15;;;;;;;3.85;2.10;;;14.00;99.90;;;;;;4956890;29;20035;-74
2021/08/02 05:34:41;;;;;;;5.80;2.15;;;14.00;99.90;;;;;;4939419;29;20016;-69
2021/08/02 05:37:11;;;;;;;4.63;2.00;;;14.00;99.90;;;;;;4956560;29;20035;-75
2021/08/02 05:39:37;;;;;;;6.38;2.35;;;14.00;99.90;;;;;;4956735;29;20019;-70
2021/08/02 05:42:04;;;;;;;6.47;1.95;;;14.10;99.90;;;;;;4956062;29;20028;-76
2021/08/02 05:44:29;;;;;;;3.47;1.80;;;14.10;99.90;;;;;;4956367;29;20110;-73
2021/08/02 05:46:55;;;;;;;9.75;2.17;;;14.10;99.90;;;;;;4956423;29;20126;-80
2021/08/02 05:49:21;;;;;;;2.58;1.92;;;14.10;99.90;;;;;;4955676;29;20063;-78
2021/08/02 05:51:46;;;;;;;5.68;2.47;;;14.20;99.90;;;;;;4939674;29;20034;-75
2021/08/02 05:54:12;;;;;;;4.30;2.75;;;14.20;99.90;;;;;;4956418;29;20058;-72
2021/08/02 05:56:38;;;;;;;6.05;2.42;;;14.30;99.90;;;;;;4956381;29;20468;-78
2021/08/02 05:59:03;;;;;;;6.28;2.58;;;14.40;99.90;;;;;;4956471;29;20062;-72
2021/08/02 06:01:29;;;;;;;4.60;1.92;;;14.60;99.90;;;;;;4956199;28;20043;-73
2021/08/02 06:03:54;;;;;;;7.25;2.35;;;14.80;99.90;;;;;;4956045;29;20038;-76
2021/08/02 06:06:20;;;;;;;5.28;1.88;;;14.90;99.90;;;;;;4956628;29;20035;-72
2021/08/02 06:08:46;;;;;;;2.92;1.80;;;15.10;99.90;;;;;;4939762;29;20015;-81
2021/08/02 06:11:11;;;;;;;3.33;1.73;;;15.10;99.90;;;;;;4955885;29;20070;-71
2021/08/02 06:13:37;;;;;;;4.07;1.60;;;15.20;99.90;;;;;;4956741;29;20374;-72
2021/08/02 06:16:03;;;;;;;4.85;2.30;;;15.20;99.90;;;;;;4955625;29;20027;-74
2021/08/02 06:18:28;;;;;;;4.40;1.98;;;15.30;99.90;;;;;;4938809;29;20028;-72
2021/08/02 06:20:54;;;;;;;3.40;1.85;;;15.30;99.90;;;;;;4956148;29;20487;-80
2021/08/02 06:23:20;;;;;;;4.38;1.88;;;15.20;99.90;;;;;;4956156;29;20428;-81
2021/08/02 06:25:45;;;;;;;6.70;1.88;;;15.10;99.90;;;;;;4956198;29;20059;-76
2021/08/02 06:28:11;;;;;;;3.88;1.60;;;15.10;99.90;;;;;;4956287;29;20034;-71
2021/08/02 06:30:36;;;;;;;7.38;2.30;;;15.00;99.90;;;;;;4956529;29;20031;-71
2021/08/02 06:33:02;;;;;;;7.13;2.03;;;14.90;99.90;;;;;;4955807;29;20035;-75
2021/08/02 06:35:28;;;;;;;3.85;2.15;;;14.90;99.90;;;;;;4954911;29;20034;-71
2021/08/02 06:37:54;;;;;;;3.10;1.73;;;14.90;99.90;;;;;;4967118;28;20033;-71
2021/08/02 06:40:20;;;;;;;6.25;1.90;;;14.90;99.90;;;;;;4974838;28;20027;-72
2021/08/02 06:42:46;;;;;;;7.82;2.35;;;14.90;99.90;;;;;;4958241;28;20472;-72
2021/08/02 06:45:11;;;;;;;4.07;1.95;;;14.90;99.90;;;;;;4955186;29;20035;-71
2021/08/02 06:47:37;;;;;;;5.40;1.77;;;15.00;99.90;;;;;;4956095;29;20039;-72
2021/08/02 06:50:04;;;;;;;5.47;1.90;;;15.00;99.90;;;;;;4956201;29;20055;-71
2021/08/02 06:52:30;;;;;;;8.40;1.88;;;15.10;99.90;;;;;;4955520;29;20030;-72
2021/08/02 06:54:56;;;;;;;5.43;1.70;;;15.10;99.90;;;;;;4956317;29;20027;-73
2021/08/02 06:57:21;;;;;;;4.18;2.25;;;15.20;99.90;;;;;;4938695;29;20020;-75
2021/08/02 06:59:47;;;;;;;4.53;1.75;;;15.20;99.90;;;;;;4955297;29;20472;-72
2021/08/02 07:02:13;;;;;;;2.75;1.75;;;15.30;99.90;;;;;;4938629;29;20038;-72
2021/08/02 07:04:38;;;;;;;5.68;1.88;;;15.40;99.90;;;;;;4955864;29;20023;-72
2021/08/02 07:07:04;;;;;;;7.88;1.83;;;15.40;99.90;;;;;;4955435;29;20030;-72
2021/08/02 07:09:29;;;;;;;3.65;1.60;;;15.50;99.90;;;;;;4955639;29;20038;-72
2021/08/02 07:11:55;;;;;;;7.03;1.80;;;15.60;99.90;;;;;;4955363;28;20027;-73
2021/08/02 07:14:20;;;;;;;3.08;1.38;;;15.70;99.90;;;;;;4954930;29;20027;-72
2021/08/02 07:16:46;;;;;;;3.33;1.52;;;15.70;99.90;;;;;;4955745;29;20082;-72
2021/08/02 07:19:11;;;;;;;4.53;1.60;;;15.80;99.90;;;;;;4938123;29;20472;-72
2021/08/02 07:21:37;;;;;;;5.55;1.40;;;15.90;99.90;;;;;;4955280;29;20041;-75
2021/08/02 07:24:03;;;;;;;5.00;1.60;;;16.10;99.90;;;;;;4955760;29;20465;-73
2021/08/02 07:26:28;;;;;;;4.20;1.45;;;16.20;99.90;;;;;;4955344;29;20042;-74
2021/08/02 07:28:58;;;;;;;1.98;1.38;;;16.40;99.90;;;;;;4938086;29;20020;-73
2021/08/02 07:31:25;;;;;;;1.75;1.20;;;16.60;99.90;;;;;;4937881;29;20028;-73
2021/08/02 07:33:51;;;;;;;2.40;1.30;;;16.80;99.90;;;;;;4955551;29;20055;-73
2021/08/02 07:36:16;;;;;;;5.20;1.63;;;16.90;99.90;;;;;;4954527;29;20070;-73
2021/08/02 07:38:44;;;;;;;5.20;1.45;;;16.80;99.90;;;;;;4955777;29;20024;-73
2021/08/02 07:41:10;;;;;;;4.13;1.65;;;16.70;99.90;;;;;;4955581;29;20102;-73
2021/08/02 07:43:36;;;;;;;3.80;1.58;;;16.60;99.90;;;;;;4937619;29;20024;-72
2021/08/02 07:46:01;;;;;;;4.25;1.48;;;16.60;99.90;;;;;;4955435;29;20066;-74
2021/08/02 07:48:27;;;;;;;2.90;1.48;;;16.60;99.90;;;;;;4954568;29;20035;-72
2021/08/02 07:50:52;;;;;;;3.63;1.40;;;16.80;99.90;;;;;;4937878;29;20031;-73
2021/08/02 07:53:18;;;;;;;5.43;1.50;;;16.90;99.90;;;;;;4954949;29;20034;-73
2021/08/02 07:55:44;;;;;;;3.85;1.30;;;17.20;99.90;;;;;;4954691;29;20015;-74
2021/08/02 07:58:10;;;;;;;4.28;1.13;;;17.30;99.90;;;;;;4955206;29;20027;-73
2021/08/02 08:00:37;;;;;;;3.92;1.50;;;17.40;99.90;;;;;;4937672;29;20046;-73
2021/08/02 08:03:02;;;;;;;5.55;1.63;;;17.50;99.90;;;;;;4954464;29;20027;-75
2021/08/02 08:05:29;;;;;;;2.22;1.17;;;17.70;99.90;;;;;;4937535;29;20118;-73
2021/08/02 08:07:55;;;;;;;4.50;1.70;;;17.80;99.90;;;;;;4938036;29;20031;-75
2021/08/02 08:10:22;;;;;;;4.32;1.77;;;18.00;99.90;;;;;;4954107;29;20020;-73
2021/08/02 08:12:48;;;;;;;2.30;1.10;;;18.20;99.90;;;;;;4955477;29;20038;-73
2021/08/02 08:15:19;;;;;;;3.90;1.50;;;18.40;99.90;;;;;;4954652;29;20055;-75
2021/08/02 08:17:48;;;;;;;6.93;1.90;;;18.60;99.90;;;;;;4954181;29;20079;-77
2021/08/02 08:20:15;;;;;;;3.17;1.40;;;18.80;99.90;;;;;;4937300;29;20028;-76
2021/08/02 08:22:41;;;;;;;4.13;1.42;;;19.00;99.90;;;;;;4955325;28;20019;-76
2021/08/02 08:25:08;;;;;;;3.85;1.48;;;18.90;99.90;;;;;;4957608;29;20583;-75
2021/08/02 08:27:34;;;;;;;5.53;1.77;;;18.80;99.90;;;;;;4941244;29;20134;-74
2021/08/02 08:29:59;;;;;;;2.88;1.52;;;18.70;99.90;;;;;;4958668;29;20102;-75
2021/08/02 08:32:25;;;;;;;3.78;1.70;;;18.70;99.90;;;;;;4957879;29;20499;-77
2021/08/02 08:34:51;;;;;;;4.68;1.45;;;18.80;99.90;;;;;;4958622;29;20027;-75
2021/08/02 08:37:17;;;;;;;2.72;1.20;;;19.10;99.90;;;;;;4958540;29;20074;-73
2021/08/02 08:39:43;;;;;;;2.63;1.42;;;19.30;99.90;;;;;;4940913;29;20121;-73
2021/08/02 08:42:08;;;;;;;4.25;1.50;;;19.50;99.90;;;;;;4941401;29;20502;-73
2021/08/02 08:44:34;;;;;;;3.30;1.42;;;19.60;99.90;;;;;;4957707;29;20031;-76
2021/08/02 08:47:00;;;;;;;2.38;1.45;;;19.60;99.90;;;;;;4958384;29;20035;-73
2021/08/02 08:49:26;;;;;;;4.82;1.50;;;19.60;99.90;;;;;;4958082;29;20030;-74
2021/08/02 08:51:53;;;;;;;5.45;1.55;;;19.50;99.90;;;;;;4957752;29;20423;-74
2021/08/02 08:54:18;;;;;;;4.80;1.45;;;19.40;99.80;;;;;;4941050;29;20023;-76
2021/08/02 08:56:44;;;;;;;3.67;1.45;;;19.30;99.60;;;;;;4958483;29;20027;-74
2021/08/02 08:59:13;;;;;;;6.30;1.63;;;19.20;99.20;;;;;;4957738;29;20102;-74
2021/08/02 09:01:40;;;;;;;2.55;1.33;;;19.10;99.20;;;;;;4941002;29;20047;-73
2021/08/02 09:04:06;;;;;;;3.10;1.45;;;19.00;99.90;;;;;;4958152;29;20055;-75
2021/08/02 09:06:48;;;;;;;5.97;1.70;;;19.00;99.90;;;;;;4957257;29;20036;-73
2021/08/02 09:09:34;;;;;;;4.30;1.40;;;19.00;99.80;;;;;;4957786;29;20059;-72
2021/08/02 09:12:14;;;;;;;6.18;1.45;;;19.00;99.70;;;;;;4958077;29;20023;-74
2021/08/02 09:14:53;;;;;;;1.45;1.27;;;19.10;99.90;;;;;;4940204;29;20405;-74
2021/08/02 09:17:37;;;;;;;2.03;1.23;;;19.20;99.90;;;;;;4957577;29;20027;-73
2021/08/02 09:20:18;;;;;;;4.30;2.10;;;19.40;99.90;;;;;;4956981;29;20097;-74
2021/08/02 09:22:43;;;;;;;3.28;1.48;;;19.50;99.90;;;;;;4940722;29;20026;-73
2021/08/02 09:25:15;;;;;;;3.58;1.45;;;19.50;99.90;;;;;;4940260;29;20432;-73
2021/08/02 09:27:42;;;;;;;2.70;1.10;;;19.70;99.70;;;;;;4957043;29;20043;-74
2021/08/02 09:30:17;;;;;;;4.18;1.58;;;19.90;99.70;;;;;;4940390;29;20113;-72
2021/08/02 09:32:47;;;;;;;9.15;1.95;;;20.10;99.00;;;;;;4940485;29;20396;-73
2021/08/02 09:35:13;;;;;;;6.55;1.90;;;20.40;98.80;;;;;;4939077;29;20111;-73
2021/08/02 09:37:38;;;;;;;2.17;1.70;;;20.60;98.30;;;;;;4940484;29;20438;-73
2021/08/02 09:40:06;;;;;;;4.10;1.95;;;20.80;98.10;;;;;;4940284;29;20027;-73
2021/08/02 09:42:31;;;;;;;1.60;0.95;;;21.00;98.80;;;;;;4956608;29;20086;-76
2021/08/02 09:45:02;;;;;;;4.70;1.33;;;21.20;99.40;;;;;;4940328;29;20035;-73
2021/08/02 09:47:29;;;;;;;6.60;1.60;;;21.40;97.90;;;;;;4939906;29;20046;-73
2021/08/02 09:49:55;;;;;;;5.13;1.63;;;21.30;97.00;;;;;;4939949;29;20030;-74
2021/08/02 09:52:20;;;;;;;4.03;1.40;;;21.20;96.60;;;;;;4957218;29;20450;-73
2021/08/02 09:54:46;;;;;;;4.15;1.40;;;21.10;97.00;;;;;;4957294;29;20042;-74
2021/08/02 09:57:12;;;;;;;1.45;1.10;;;21.00;97.40;;;;;;4956402;29;20034;-74
2021/08/02 09:59:42;;;;;;;2.47;1.23;;;20.80;98.30;;;;;;4956682;29;20031;-74
2021/08/02 10:02:08;;;;;;;2.72;1.30;;;20.70;99.00;;;;;;4939600;29;20023;-74
2021/08/02 10:04:34;;;;;;;2.75;1.35;;;20.70;99.70;;;;;;4939466;29;20102;-73
2021/08/02 10:07:00;;;;;;;3.13;1.77;;;20.50;99.50;;;;;;4957180;29;20065;-75
2021/08/02 10:09:29;;;;;;;5.05;1.50;;;20.30;99.70;;;;;;4956081;29;20059;-75
2021/08/02 10:11:56;;;;;;;4.18;1.40;;;20.10;98.50;;;;;;4957112;29;20486;-74
2021/08/02 10:14:29;;;;;;;2.65;1.42;;;19.90;99.10;;;;;;4956703;29;20023;-73
2021/08/02 10:16:57;;;;;;;2.67;1.20;;;19.80;99.60;;;;;;4939278;29;20110;-74
2021/08/02 10:19:36;;;;;;;4.03;1.60;;;19.70;99.30;;;;;;4956520;29;20030;-73
2021/08/02 10:22:01;;;;;;;5.03;1.70;;;19.50;99.30;;;;;;4939706;29;20051;-73
2021/08/02 10:24:27;;;;;;;5.43;1.90;;;19.40;99.80;;;;;;4956184;29;20028;-73
2021/08/02 10:26:56;;;;;;;3.60;1.67;;;19.40;99.80;;;;;;4939253;29;20130;-74
2021/08/02 10:29:22;;;;;;;2.47;1.52;;;19.50;99.90;;;;;;4939213;29;20481;-74
2021/08/02 10:31:51;;;;;;;3.53;1.77;;;19.70;99.70;;;;;;4956050;29;20037;-73
2021/08/02 10:34:24;;;;;;;2.80;1.42;;;20.00;99.00;;;;;;4956265;29;20027;-74
2021/08/02 10:37:05;;;;;;;2.97;1.60;;;20.40;98.60;;;;;;4956458;29;20035;-73
2021/08/02 10:39:33;;;;;;;3.20;1.73;;;20.80;97.70;;;;;;4956128;29;20811;-73
2021/08/02 10:42:16;;;;;;;6.75;2.00;;;21.10;97.00;;;;;;4956644;29;20042;-73
2021/08/02 10:44:53;;;;;;;4.32;1.75;;;21.40;96.70;;;;;;4955787;29;20380;-73
2021/08/02 10:47:18;;;;;;;2.83;1.30;;;21.70;95.90;;;;;;4955421;28;20058;-73
2021/08/02 10:49:51;;;;;;;3.85;1.45;;;22.00;95.10;;;;;;4956206;29;20066;-73
2021/08/02 10:52:27;;;;;;;2.25;1.30;;;22.30;95.20;;;;;;4955403;29;20019;-74
2021/08/02 10:54:53;;;;;;;3.75;1.85;;;22.50;94.70;;;;;;4939122;29;20034;-73
2021/08/02 10:57:19;;;;;;;1.75;1.25;;;22.80;94.70;;;;;;4955944;29;20031;-74
2021/08/02 10:59:44;;;;;;;5.45;1.40;;;23.00;94.10;;;;;;4955477;29;20098;-73
2021/08/02 11:02:11;;;;;;;4.07;1.55;;;23.10;93.00;;;;;;4939011;29;20444;-73
2021/08/02 11:04:41;;;;;;;3.60;1.52;;;23.10;92.40;;;;;;4956057;29;20400;-73
2021/08/02 11:07:08;;;;;;;2.53;1.45;;;23.10;91.80;;;;;;4937999;29;20097;-74
2021/08/02 11:09:37;;;;;;;4.55;1.52;;;23.20;91.60;;;;;;4955649;29;20015;-76
2021/08/02 11:12:13;;;;;;;3.58;1.30;;;23.00;90.60;;;;;;4939031;29;20036;-74
2021/08/02 11:14:50;;;;;;;2.83;1.23;;;22.80;91.00;;;;;;4938352;29;20027;-74
2021/08/02 11:17:17;;;;;;;2.83;1.35;;;22.50;91.80;;;;;;4938637;29;20110;-73
2021/08/02 11:19:42;;;;;;;6.60;1.30;;;22.30;91.70;;;;;;4955108;29;20488;-74
2021/08/02 11:22:08;;;;;;;4.18;1.40;;;22.00;91.90;;;;;;4955805;29;20035;-75
2021/08/02 11:24:36;;;;;;;4.00;1.33;;;21.80;92.80;;;;;;4938373;29;20023;-74
2021/08/02 11:27:10;;;;;;;2.33;1.30;;;21.60;92.70;;;;;;4933359;29;20031;-72
2021/08/02 11:29:36;;;;;;;4.47;1.75;;;21.40;91.70;;;;;;4952315;28;20031;-70
2021/08/02 11:32:03;;;;;;;3.30;1.30;;;21.30;92.20;;;;;;4969192;28;20038;-81
2021/08/02 11:34:30;;;;;;;3.03;1.45;;;21.40;91.90;;;;;;4963740;28;20020;-74
2021/08/02 11:36:58;;;;;;;7.20;1.67;;;21.70;91.60;;;;;;4937157;29;20081;-76
2021/08/02 11:39:24;;;;;;;2.60;1.40;;;21.80;91.20;;;;;;4940207;29;20030;-72
2021/08/02 11:42:02;;;;;;;4.97;2.10;;;21.90;91.40;;;;;;4953227;28;20396;-79
2021/08/02 11:44:28;;;;;;;3.15;1.30;;;21.90;91.20;;;;;;4937022;29;20020;-81
2021/08/02 11:46:55;;;;;;;4.97;1.70;;;21.80;91.40;;;;;;4936987;29;20057;-74
2021/08/02 11:49:21;;;;;;;2.53;1.60;;;21.70;90.70;;;;;;4954131;29;20460;-77
2021/08/02 11:51:48;;;;;;;4.15;1.20;;;21.50;90.40;;;;;;4937090;29;20027;-76
2021/08/02 11:54:24;;;;;;;2.30;1.13;;;21.30;91.10;;;;;;4954073;28;20050;-77
2021/08/02 11:56:51;;;;;;;3.03;1.60;;;21.30;90.10;;;;;;4952541;29;20027;-76
2021/08/02 11:59:24;;;;;;;1.65;1.20;;;21.40;89.60;;;;;;4953048;28;20032;-74
2021/08/02 12:01:52;;;;;;;3.75;1.33;;;21.60;87.30;;;;;;4965981;28;20162;-75
2021/08/02 12:04:18;;;;;;;3.80;1.38;;;21.90;86.00;;;;;;4972313;28;20026;-74
2021/08/02 12:06:55;;;;;;;2.50;1.13;;;22.00;85.70;;;;;;4960818;28;20031;-80
2021/08/02 12:09:37;;;;;;;4.05;1.25;;;22.20;86.30;;;;;;4965896;28;20076;-74
2021/08/02 12:12:07;;;;;;;2.80;0.95;;;22.40;85.70;;;;;;4956689;28;20505;-76
2021/08/02 12:14:34;;;;;;;2.88;1.38;;;22.60;86.00;;;;;;4965951;28;20023;-78
2021/08/02 12:17:10;;;;;;;4.85;1.23;;;22.70;86.40;;;;;;4937018;29;20041;-78
2021/08/02 12:19:50;;;;;;;4.18;1.67;;;22.70;85.60;;;;;;4938778;29;20031;-73
2021/08/02 12:22:18;;;;;;;3.47;1.40;;;22.70;85.90;;;;;;4938550;28;20527;-74
2021/08/02 12:24:52;;;;;;;2.28;1.30;;;22.50;81.40;;;;;;4936120;29;20031;-74
2021/08/02 12:27:18;;;;;;;1.77;1.23;;;22.50;82.30;;;;;;4937524;29;20150;-76
2021/08/02 12:30:05;;;;;;;2.58;1.33;;;22.60;81.20;;;;;;4936385;29;20484;-74
2021/08/02 12:32:35;;;;;;;4.15;1.60;;;22.50;81.60;;;;;;4954684;28;20031;-74
2021/08/02 12:35:00;;;;;;;1.50;1.17;;;22.50;81.40;;;;;;4955508;28;20030;-75
2021/08/02 12:37:26;;;;;;;3.65;1.20;;;22.60;82.50;;;;;;4944095;28;20496;-75
2021/08/02 12:39:54;;;;;;;2.50;1.45;;;23.00;82.90;;;;;;4971376;28;20031;-73
2021/08/02 12:42:24;;;;;;;3.28;1.58;;;23.30;82.90;;;;;;4970140;28;20045;-71
2021/08/02 12:44:49;;;;;;;3.22;1.27;;;23.60;79.90;;;;;;4972301;28;20030;-74
2021/08/02 12:47:15;;;;;;;3.33;1.38;;;23.40;77.80;;;;;;4973175;28;20117;-76
2021/08/02 12:49:40;;;;;;;4.63;1.92;;;23.00;77.10;;;;;;4973789;28;20479;-76
2021/08/02 12:52:06;;;;;;;3.75;1.60;;;22.60;77.80;;;;;;4973241;28;20022;-79